Terminal Aerodrome Forecast
Issued by NWS Paducah, KY

Home | Current Version | Previous Version | Text Only | Print | Product List | Glossary On
Versions: 1 2 3 4 5 6 7 8 9 10 11 12 13 14
493
FTUS43 KPAH 231734 AAB
TAFPAH
TAF AMD
KPAH 231734Z 2318/2418 VRB03KT P6SM SCT060
     FM240300 22003KT P6SM SCT250
     FM240900 00000KT 2SM BR SCT150
     FM241300 VRB03KT P6SM SCT030=

USA.gov is the U.S. government's official web portal to all federal, state and local government web resources and services.